Time;durP1;ratioP1;P1;durP2;ratioP2;P2;SDS_P1;SDS_P2;PMS_P1;PMS_P2;Temp;Humidity;BMP_temperature;BMP_pressure;BME280_temperature;BME280_humidity;BME280_pressure;Samples;Min_cycle;Max_cycle;Signal;HPM_P1;HPM_P2
2022/03/04 00:00:09;;;;;;;24.55;13.95;;;;;;;-0.23;96.23;101661.16;4952557;28;20054;-83
2022/03/04 00:02:37;;;;;;;26.90;13.65;;;;;;;-0.24;96.85;101655.94;4945354;28;20060;-83
2022/03/04 00:05:04;;;;;;;24.15;12.80;;;;;;;-0.23;96.48;101657.72;4965025;28;20046;-83
2022/03/04 00:07:30;;;;;;;21.98;12.07;;;;;;;-0.24;96.07;101659.38;4945102;28;20133;-83
2022/03/04 00:09:57;;;;;;;26.80;12.50;;;;;;;-0.21;96.29;101666.38;4959710;28;20126;-82
2022/03/04 00:12:23;;;;;;;25.67;12.65;;;;;;;-0.30;96.99;101664.25;4963285;28;20054;-83
2022/03/04 00:14:50;;;;;;;30.00;15.23;;;;;;;-0.35;97.49;101666.56;4961015;28;20813;-83
2022/03/04 00:17:16;;;;;;;23.70;13.68;;;;;;;-0.35;98.08;101673.41;4970076;28;20060;-83
2022/03/04 00:19:43;;;;;;;27.77;14.48;;;;;;;-0.35;97.61;101673.41;4952327;28;20042;-82
2022/03/04 00:22:09;;;;;;;31.65;15.93;;;;;;;-0.43;98.02;101670.44;4961335;28;20053;-84
2022/03/04 00:24:36;;;;;;;26.27;13.68;;;;;;;-0.48;99.07;101664.16;4938625;28;20216;-82
2022/03/04 00:27:03;;;;;;;22.77;12.55;;;;;;;-0.45;99.31;101672.03;4950289;28;20077;-83
2022/03/04 00:29:29;;;;;;;26.75;13.82;;;;;;;-0.41;98.34;101668.81;4962116;28;20050;-83
2022/03/04 00:31:56;;;;;;;23.48;13.25;;;;;;;-0.37;98.30;101670.72;4964220;28;20073;-83
2022/03/04 00:34:22;;;;;;;21.90;11.98;;;;;;;-0.37;98.05;101670.72;4950103;28;20527;-83
2022/03/04 00:36:49;;;;;;;25.10;12.07;;;;;;;-0.36;98.59;101669.94;4945253;28;20050;-83
2022/03/04 00:39:17;;;;;;;31.05;15.30;;;;;;;-0.36;97.93;101674.22;4954593;28;20042;-82
2022/03/04 00:41:47;;;;;;;29.00;13.50;;;;;;;-0.35;98.74;101666.56;4965691;28;20054;-82
2022/03/04 00:44:14;;;;;;;25.30;13.18;;;;;;;-0.34;98.70;101670.91;4940317;28;20085;-83
2022/03/04 00:46:44;;;;;;;27.67;13.48;;;;;;;-0.30;98.39;101669.38;4947592;28;20038;-83
2022/03/04 00:49:11;;;;;;;29.27;14.57;;;;;;;-0.29;98.93;101675.41;4965181;28;20051;-84
2022/03/04 00:51:37;;;;;;;27.02;14.07;;;;;;;-0.25;98.16;101670.50;4951929;28;20051;-83
2022/03/04 00:54:04;;;;;;;26.30;13.05;;;;;;;-0.23;98.32;101668.88;4961263;28;20541;-83
2022/03/04 00:56:30;;;;;;;23.63;12.40;;;;;;;-0.19;98.01;101675.94;4956847;28;20138;-83
2022/03/04 00:58:57;;;;;;;22.40;11.82;;;;;;;-0.15;97.45;101676.13;4947619;28;20152;-83
2022/03/04 01:01:23;;;;;;;22.05;12.38;;;;;;;-0.17;97.10;101683.75;4975964;28;20070;-82
2022/03/04 01:03:50;;;;;;;21.88;13.25;;;;;;;-0.29;96.64;101681.44;4939034;28;20047;-83
2022/03/04 01:06:18;;;;;;;25.50;13.95;;;;;;;-0.26;96.80;101675.56;4943084;28;20061;-82
2022/03/04 01:08:44;;;;;;;24.33;13.75;;;;;;;-0.24;96.97;101679.09;4957039;28;20046;-83
2022/03/04 01:11:11;;;;;;;22.35;12.52;;;;;;;-0.25;96.18;101667.94;4956491;28;20050;-83
2022/03/04 01:13:37;;;;;;;27.00;12.05;;;;;;;-0.31;96.20;101669.28;4944722;28;20062;-84
2022/03/04 01:16:04;;;;;;;24.92;12.70;;;;;;;-0.35;96.57;101679.44;4951323;28;20047;-82
2022/03/04 01:18:31;;;;;;;26.92;12.48;;;;;;;-0.34;96.50;101678.63;4960259;28;20047;-83
2022/03/04 01:20:58;;;;;;;24.85;12.57;;;;;;;-0.32;96.32;101682.97;4964021;28;20067;-83
2022/03/04 01:23:24;;;;;;;24.10;10.93;;;;;;;-0.27;95.80;101682.41;4963600;28;20440;-82
2022/03/04 01:25:52;;;;;;;19.30;11.82;;;;;;;-0.23;95.59;101675.72;4955179;28;20126;-83
2022/03/04 01:28:22;;;;;;;19.40;11.07;;;;;;;-0.18;94.67;101676.84;4965748;28;20050;-83
2022/03/04 01:30:50;;;;;;;28.52;12.68;;;;;;;-0.23;95.54;101668.88;4954979;28;20058;-84
2022/03/04 01:33:17;;;;;;;21.90;11.10;;;;;;;-0.23;95.63;101666.31;4944163;28;20089;-83
2022/03/04 01:35:43;;;;;;;22.48;11.82;;;;;;;-0.18;95.42;101654.56;4948638;28;20059;-83
2022/03/04 01:38:10;;;;;;;20.92;12.07;;;;;;;-0.15;94.98;101658.13;4961549;28;20049;-82
2022/03/04 01:40:37;;;;;;;19.55;10.73;;;;;;;-0.12;95.04;101659.13;4964807;28;20043;-83
2022/03/04 01:43:04;;;;;;;22.27;11.82;;;;;;;-0.13;94.33;101653.91;4948050;28;20097;-83
2022/03/04 01:45:31;;;;;;;22.30;11.98;;;;;;;-0.08;94.73;101645.63;4979701;28;20548;-83
2022/03/04 01:47:57;;;;;;;19.88;10.65;;;;;;;-0.07;94.01;101646.50;4949966;28;20061;-84
2022/03/04 01:50:27;;;;;;;20.40;11.32;;;;;;;-0.09;93.41;101641.28;4955557;28;20046;-83
2022/03/04 01:52:54;;;;;;;22.13;11.63;;;;;;;-0.11;93.68;101648.03;4943988;28;20101;-83
2022/03/04 01:55:21;;;;;;;20.83;11.57;;;;;;;-0.14;93.24;101650.47;4967530;28;20043;-83
2022/03/04 01:57:48;;;;;;;21.30;11.23;;;;;;;-0.17;93.23;101640.91;4953865;28;20123;-83
2022/03/04 02:00:16;;;;;;;20.90;10.50;;;;;;;-0.13;93.51;101641.03;4948558;28;20148;-83
2022/03/04 02:02:44;;;;;;;19.65;12.07;;;;;;;-0.09;92.98;101653.25;4957675;28;20073;-82
2022/03/04 02:05:16;;;;;;;19.13;10.43;;;;;;;-0.08;92.48;101632.78;4968383;28;20046;-82
2022/03/04 02:07:43;;;;;;;21.92;12.05;;;;;;;-0.04;92.26;101642.41;4947140;28;20153;-83
2022/03/04 02:10:11;;;;;;;25.55;12.68;;;;;;;0.03;92.19;101641.00;4970055;28;20042;-83
2022/03/04 02:12:38;;;;;;;23.63;11.98;;;;;;;0.05;91.82;101634.22;4949222;28;20447;-83
2022/03/04 02:15:07;;;;;;;22.27;11.35;;;;;;;0.11;90.86;101642.28;4972224;28;20072;-82
2022/03/04 02:17:34;;;;;;;16.48;10.13;;;;;;;0.12;90.88;101641.47;4972824;28;20769;-83
2022/03/04 02:20:03;;;;;;;20.92;11.32;;;;;;;0.12;90.98;101635.44;4965258;28;20058;-84
2022/03/04 02:22:31;;;;;;;22.33;11.60;;;;;;;0.14;90.99;101632.16;4951709;28;20072;-82
2022/03/04 02:24:58;;;;;;;22.35;10.60;;;;;;;0.21;90.54;101630.75;4965934;28;20051;-84
2022/03/04 02:27:28;;;;;;;19.75;11.85;;;;;;;0.17;90.50;101631.41;4945687;28;20132;-83
2022/03/04 02:29:54;;;;;;;17.42;10.23;;;;;;;0.14;90.29;101649.25;4949284;28;20077;-83
2022/03/04 02:32:21;;;;;;;18.73;10.13;;;;;;;0.14;90.64;101638.97;4955051;28;20046;-82
2022/03/04 02:34:47;;;;;;;17.20;9.50;;;;;;;0.15;90.52;101641.59;4958540;28;20050;-83
2022/03/04 02:37:15;;;;;;;17.35;9.90;;;;;;;0.14;90.34;101641.53;4966101;28;20054;-83
2022/03/04 02:39:42;;;;;;;19.00;10.25;;;;;;;0.16;90.38;101648.53;4962152;28;20306;-82
2022/03/04 02:42:09;;;;;;;18.08;10.05;;;;;;;0.18;90.38;101652.88;4957154;28;20124;-84
2022/03/04 02:44:35;;;;;;;16.52;9.50;;;;;;;0.20;89.95;101652.16;4967336;28;20583;-82
2022/03/04 02:47:02;;;;;;;18.40;9.57;;;;;;;0.28;89.76;101652.53;4971144;28;20468;-82
2022/03/04 02:49:29;;;;;;;15.70;9.90;;;;;;;0.30;89.37;101653.47;4962303;28;20405;-82
2022/03/04 02:51:55;;;;;;;18.98;10.13;;;;;;;0.33;89.56;101662.25;4965584;28;20034;-83
2022/03/04 02:54:22;;;;;;;19.90;10.20;;;;;;;0.34;88.96;101655.41;4946192;28;20050;-82
2022/03/04 02:56:50;;;;;;;15.60;8.63;;;;;;;0.33;88.47;101651.94;4965060;28;20060;-83
2022/03/04 02:59:16;;;;;;;15.32;8.30;;;;;;;0.32;89.01;101650.16;4951869;28;20042;-83
2022/03/04 03:01:43;;;;;;;13.27;8.18;;;;;;;0.33;88.67;101654.50;4961125;28;20053;-83
2022/03/04 03:04:09;;;;;;;15.50;9.07;;;;;;;0.32;88.23;101650.16;4948290;28;20249;-83
2022/03/04 03:06:36;;;;;;;12.13;7.03;;;;;;;0.31;88.65;101642.38;4967279;28;20051;-84
2022/03/04 03:09:03;;;;;;;11.63;6.97;;;;;;;0.29;88.40;101650.03;4948800;28;20078;-83
2022/03/04 03:11:30;;;;;;;13.45;8.15;;;;;;;0.32;88.43;101642.44;4957438;28;20060;-83
2022/03/04 03:13:56;;;;;;;14.98;7.38;;;;;;;0.34;88.06;101637.38;4968243;28;20042;-83
2022/03/04 03:16:23;;;;;;;10.32;6.22;;;;;;;0.33;88.50;101638.19;4951693;28;20058;-83
2022/03/04 03:18:50;;;;;;;12.35;7.60;;;;;;;0.35;87.79;101633.09;4952777;28;20046;-83
2022/03/04 03:21:16;;;;;;;12.98;6.97;;;;;;;0.37;87.79;101634.94;4950853;28;20069;-83
2022/03/04 03:23:43;;;;;;;14.18;7.30;;;;;;;0.40;88.34;101631.63;4947256;28;20042;-83
2022/03/04 03:26:10;;;;;;;18.63;7.85;;;;;;;0.38;88.36;101647.03;4952685;28;20163;-81
2022/03/04 03:28:36;;;;;;;12.25;7.63;;;;;;;0.37;88.28;101636.66;4968346;28;20049;-83
2022/03/04 03:31:03;;;;;;;8.75;6.53;;;;;;;0.39;88.23;101647.91;4948992;28;20332;-83
2022/03/04 03:33:30;;;;;;;11.93;7.03;;;;;;;0.37;88.27;101647.81;4953685;28;20125;-83
2022/03/04 03:35:57;;;;;;;11.88;6.20;;;;;;;0.41;87.75;101642.00;4963160;28;20077;-83
2022/03/04 03:38:24;;;;;;;12.05;7.38;;;;;;;0.46;87.91;101647.41;4965993;28;20058;-83
2022/03/04 03:40:51;;;;;;;12.95;6.88;;;;;;;0.46;87.85;101650.84;4952783;28;20076;-84
2022/03/04 03:43:18;;;;;;;13.65;5.68;;;;;;;0.46;88.10;101647.41;4964101;28;20108;-83
2022/03/04 03:45:44;;;;;;;10.70;6.45;;;;;;;0.42;87.70;101643.78;4947750;28;20055;-83
2022/03/04 03:48:11;;;;;;;11.20;6.13;;;;;;;0.41;87.96;101647.16;4946407;28;20039;-84
2022/03/04 03:50:38;;;;;;;13.98;6.90;;;;;;;0.41;88.36;101634.28;4931867;28;20047;-82
2022/03/04 03:53:06;;;;;;;10.35;6.25;;;;;;;0.43;87.92;101644.66;4924477;28;20055;-82
2022/03/04 03:55:33;;;;;;;10.40;6.18;;;;;;;0.43;87.79;101634.34;4944246;28;20129;-82
2022/03/04 03:58:00;;;;;;;9.55;6.75;;;;;;;0.44;87.71;101638.69;4936007;28;20906;-82
2022/03/04 04:00:27;;;;;;;11.65;5.65;;;;;;;0.41;87.99;101636.84;4932098;28;20047;-82
2022/03/04 04:02:54;;;;;;;11.07;6.38;;;;;;;0.44;88.29;101643.84;4960184;28;20055;-82
2022/03/04 04:05:21;;;;;;;11.55;6.28;;;;;;;0.44;87.66;101643.84;4924195;28;20062;-83
2022/03/04 04:07:47;;;;;;;10.30;6.32;;;;;;;0.41;87.22;101649.75;4944668;28;20799;-83
2022/03/04 04:10:14;;;;;;;8.60;6.22;;;;;;;0.37;87.92;101647.81;4931946;28;20039;-83
2022/03/04 04:12:40;;;;;;;10.32;6.63;;;;;;;0.37;88.71;101654.69;4942156;28;20066;-84
2022/03/04 04:15:08;;;;;;;11.63;7.57;;;;;;;0.34;88.49;101655.41;4930165;28;20054;-82
2022/03/04 04:17:35;;;;;;;10.02;5.72;;;;;;;0.37;88.11;101665.84;4936611;28;20046;-82
2022/03/04 04:20:02;;;;;;;8.23;6.13;;;;;;;0.40;88.08;101653.13;4928678;28;20127;-84
2022/03/04 04:22:29;;;;;;;7.85;5.85;;;;;;;0.43;87.82;101642.97;4944392;28;20047;-83
2022/03/04 04:24:56;;;;;;;11.82;6.13;;;;;;;0.43;87.25;101655.84;4936878;28;20070;-83
2022/03/04 04:27:25;;;;;;;13.63;6.65;;;;;;;0.42;87.16;101659.25;4942736;28;20062;-83
2022/03/04 04:29:52;;;;;;;8.70;5.70;;;;;;;0.32;87.33;101655.31;4946114;28;20152;-83
2022/03/04 04:32:18;;;;;;;11.65;6.18;;;;;;;0.26;87.19;101660.19;4921521;28;20055;-83
2022/03/04 04:34:45;;;;;;;8.65;5.60;;;;;;;0.23;87.32;101656.56;4928734;28;20058;-83
2022/03/04 04:37:12;;;;;;;9.25;6.35;;;;;;;0.22;87.39;101659.94;4929662;28;20055;-83
2022/03/04 04:39:38;;;;;;;8.18;5.38;;;;;;;0.23;87.55;101656.56;4953414;28;20057;-83
2022/03/04 04:42:05;;;;;;;10.73;6.75;;;;;;;0.18;87.81;101658.03;4943194;28;20074;-83
2022/03/04 04:44:32;;;;;;;10.10;6.40;;;;;;;0.15;87.90;101649.34;4941928;28;20061;-83
2022/03/04 04:46:58;;;;;;;10.90;5.70;;;;;;;0.18;87.79;101658.03;4961004;28;20129;-83
2022/03/04 04:49:26;;;;;;;13.35;5.55;;;;;;;0.23;87.31;101654.00;4960572;28;20054;-83
2022/03/04 04:51:55;;;;;;;12.02;6.38;;;;;;;0.23;87.55;101648.84;4961250;28;20130;-82
2022/03/04 04:54:22;;;;;;;12.23;6.10;;;;;;;0.23;87.55;101662.59;4936467;28;20126;-84
2022/03/04 04:56:48;;;;;;;8.30;5.22;;;;;;;0.19;87.35;101663.25;4945762;28;20152;-83
2022/03/04 04:59:18;;;;;;;11.23;6.47;;;;;;;0.07;88.00;101658.38;4965990;28;20432;-83
2022/03/04 05:01:45;;;;;;;11.60;6.03;;;;;;;-0.01;88.67;101663.13;4946966;28;20046;-83
2022/03/04 05:04:11;;;;;;;8.50;5.03;;;;;;;-0.05;88.74;101647.47;4959190;28;20180;-83
2022/03/04 05:06:38;;;;;;;9.82;5.10;;;;;;;-0.06;88.54;101656.00;4957849;28;24223;-83
2022/03/04 05:09:04;;;;;;;10.20;5.18;;;;;;;-0.04;88.92;101659.53;4940115;28;20062;-82
2022/03/04 05:11:31;;;;;;;10.20;5.35;;;;;;;-0.03;88.26;101656.16;4947252;28;20059;-83
2022/03/04 05:13:58;;;;;;;10.50;6.00;;;;;;;-0.02;88.69;101652.78;4939549;28;20051;-83
2022/03/04 05:16:24;;;;;;;10.60;5.50;;;;;;;-0.03;88.74;101653.56;4960310;28;20059;-83
2022/03/04 05:18:51;;;;;;;9.07;6.03;;;;;;;-0.05;88.55;101666.38;4961812;28;20055;-83
2022/03/04 05:21:18;;;;;;;9.85;5.53;;;;;;;-0.07;88.45;101665.41;4938533;28;20528;-83
2022/03/04 05:24:02;;;;;;;8.60;4.78;;;;;;;-0.12;89.11;101665.97;4954795;28;20551;-82
2022/03/04 05:26:31;;;;;;;9.55;5.45;;;;;;;-0.18;88.79;101670.00;4958325;28;20054;-83
2022/03/04 05:29:09;;;;;;;12.55;5.90;;;;;;;-0.20;89.08;101674.19;4950641;28;20049;-82
2022/03/04 05:31:37;;;;;;;9.95;5.28;;;;;;;-0.19;89.44;101670.81;4940799;28;20068;-83
2022/03/04 05:34:04;;;;;;;12.52;6.70;;;;;;;-0.20;89.31;101666.47;4931630;28;20047;-82
2022/03/04 05:36:37;;;;;;;10.80;5.97;;;;;;;-0.20;90.13;101673.31;4955987;28;20154;-82
2022/03/04 05:39:04;;;;;;;12.85;6.90;;;;;;;-0.22;90.20;101675.81;4952156;28;20042;-82
2022/03/04 05:41:31;;;;;;;11.70;7.22;;;;;;;-0.25;89.72;101669.63;4931103;28;20746;-83
2022/03/04 05:43:59;;;;;;;12.18;6.47;;;;;;;-0.33;89.89;101666.63;4969964;28;20055;-83
2022/03/04 05:46:25;;;;;;;10.77;7.28;;;;;;;-0.43;90.54;101665.28;4944181;28;20121;-83
2022/03/04 05:48:54;;;;;;;14.65;6.72;;;;;;;-0.49;91.66;101664.97;4936938;28;20055;-82
2022/03/04 05:51:21;;;;;;;12.15;6.75;;;;;;;-0.52;92.00;101668.25;4955333;28;20065;-82
2022/03/04 05:53:49;;;;;;;11.60;6.32;;;;;;;-0.52;92.35;101669.97;4955692;28;20225;-83
2022/03/04 05:56:16;;;;;;;16.23;6.97;;;;;;;-0.55;92.80;101669.78;4931261;28;20058;-83
2022/03/04 05:58:43;;;;;;;10.80;6.22;;;;;;;-0.58;93.16;101664.50;4947411;28;20873;-83
2022/03/04 06:01:10;;;;;;;9.05;6.38;;;;;;;-0.63;92.78;101669.38;4965779;28;20050;-84
2022/03/04 06:03:37;;;;;;;13.13;6.90;;;;;;;-0.65;92.51;101670.09;4955815;28;20053;-83
2022/03/04 06:06:05;;;;;;;11.05;6.57;;;;;;;-0.66;93.86;101671.78;4961591;28;20439;-83
2022/03/04 06:08:32;;;;;;;16.23;7.47;;;;;;;-0.66;93.50;101682.06;4944325;28;20142;-83
2022/03/04 06:10:59;;;;;;;12.15;6.28;;;;;;;-0.70;94.09;101681.03;4935904;28;20285;-82
2022/03/04 06:13:26;;;;;;;10.80;6.55;;;;;;;-0.73;94.01;101679.97;4943008;28;20517;-84
2022/03/04 06:15:53;;;;;;;10.13;5.75;;;;;;;-0.76;94.09;101697.81;4958266;28;20043;-84
2022/03/04 06:18:19;;;;;;;10.55;6.22;;;;;;;-0.71;94.29;101698.94;4962151;28;20095;-85
2022/03/04 06:20:46;;;;;;;11.40;6.47;;;;;;;-0.67;94.00;101701.75;4959344;28;20112;-84
2022/03/04 06:23:14;;;;;;;8.98;6.50;;;;;;;-0.59;93.41;101694.44;4941827;28;20504;-84
2022/03/04 06:25:41;;;;;;;13.13;6.63;;;;;;;-0.50;93.29;101699.19;4941767;28;20171;-84
2022/03/04 06:28:08;;;;;;;12.65;6.60;;;;;;;-0.43;92.61;101695.25;4961830;28;20153;-84
2022/03/04 06:30:37;;;;;;;10.68;6.22;;;;;;;-0.39;92.10;101690.38;4961899;28;21443;-84
2022/03/04 06:35:56;;;;;;;15.63;7.20;;;;;;;-0.33;91.64;101694.94;4943107;28;20137;-84
2022/03/04 06:38:23;;;;;;;12.93;6.95;;;;;;;-0.31;91.50;101693.34;4960581;28;20070;-84
2022/03/04 06:40:51;;;;;;;12.05;6.10;;;;;;;-0.26;91.68;101691.91;4949949;28;20700;-84
2022/03/04 06:43:19;;;;;;;12.00;7.20;;;;;;;-0.20;91.53;101702.47;4963090;28;20459;-84
2022/03/04 06:45:48;;;;;;;10.48;6.20;;;;;;;-0.12;91.11;101707.16;4959933;28;20058;-83
2022/03/04 06:48:18;;;;;;;12.15;7.18;;;;;;;-0.07;90.26;101710.84;4958417;28;20055;-84
2022/03/04 06:50:45;;;;;;;12.15;5.97;;;;;;;-0.03;89.53;101710.19;4961623;28;20061;-84
2022/03/04 06:53:14;;;;;;;11.70;7.05;;;;;;;0.02;89.59;101703.59;4945094;28;20058;-84
2022/03/04 06:55:41;;;;;;;13.70;6.22;;;;;;;0.09;89.28;101710.84;4950732;28;20447;-84
2022/03/04 06:58:08;;;;;;;13.15;7.25;;;;;;;0.11;89.15;101711.78;4959096;28;20871;-84
2022/03/04 07:00:34;;;;;;;11.63;7.30;;;;;;;0.12;89.45;101716.13;4953491;28;20066;-85
2022/03/04 07:03:02;;;;;;;15.07;7.03;;;;;;;0.18;88.47;101722.41;4963576;28;20054;-84
2022/03/04 07:05:28;;;;;;;9.85;7.70;;;;;;;0.17;88.33;101724.09;4937729;28;20047;-85
2022/03/04 07:07:55;;;;;;;13.82;7.07;;;;;;;0.23;88.69;101720.94;4942326;28;20064;-85
2022/03/04 07:10:26;;;;;;;15.30;7.55;;;;;;;0.25;88.03;101714.16;4958865;28;20055;-85
2022/03/04 07:12:52;;;;;;;9.32;6.85;;;;;;;0.25;88.07;101725.38;4955378;28;20199;-83
2022/03/04 07:15:20;;;;;;;13.23;6.57;;;;;;;0.26;87.48;101729.72;4962429;28;20049;-84
2022/03/04 07:17:48;;;;;;;14.27;8.27;;;;;;;0.29;87.44;101735.00;4963735;28;20054;-83
2022/03/04 07:20:15;;;;;;;11.57;7.50;;;;;;;0.37;86.80;101731.94;4940343;28;20433;-84
2022/03/04 07:22:43;;;;;;;11.10;6.47;;;;;;;0.44;87.17;101734.00;4962674;28;20047;-83
2022/03/04 07:25:16;;;;;;;14.18;7.80;;;;;;;0.51;86.01;101730.03;4955321;28;20050;-84
2022/03/04 07:27:43;;;;;;;11.10;7.78;;;;;;;0.47;85.38;101740.22;4943475;28;20267;-84
2022/03/04 07:30:14;;;;;;;12.73;7.32;;;;;;;0.46;85.43;101738.44;4949169;28;20062;-83
2022/03/04 07:32:42;;;;;;;12.65;7.57;;;;;;;0.49;85.32;101741.16;4958702;28;20107;-84
2022/03/04 07:35:11;;;;;;;15.35;8.95;;;;;;;0.51;85.85;101737.78;4957211;28;20055;-83
2022/03/04 07:37:41;;;;;;;11.82;7.13;;;;;;;0.56;84.99;101741.47;4959671;28;20565;-84
2022/03/04 07:40:14;;;;;;;14.00;8.30;;;;;;;0.59;84.83;101746.78;4939186;28;20051;-83
2022/03/04 07:42:41;;;;;;;15.02;7.95;;;;;;;0.69;84.51;101750.69;4963987;28;20095;-84
2022/03/04 07:45:10;;;;;;;12.27;7.90;;;;;;;0.77;83.66;101763.16;4963800;28;20082;-83
2022/03/04 07:47:39;;;;;;;14.88;7.35;;;;;;;0.69;83.16;101763.56;4938851;28;20208;-84
2022/03/04 07:50:08;;;;;;;17.50;8.27;;;;;;;0.73;83.69;101756.06;4965309;28;20057;-84
2022/03/04 07:52:36;;;;;;;14.95;8.65;;;;;;;0.85;83.16;101767.78;4946033;28;20061;-83
2022/03/04 07:55:06;;;;;;;14.85;7.88;;;;;;;0.87;82.89;101766.16;4957697;28;20046;-84
2022/03/04 07:57:37;;;;;;;13.77;7.47;;;;;;;0.81;82.84;101767.63;4961340;28;20050;-83
2022/03/04 08:00:10;;;;;;;14.00;7.40;;;;;;;0.79;82.28;101769.25;4948332;28;20651;-83
2022/03/04 08:02:38;;;;;;;21.88;9.00;;;;;;;0.82;82.94;101768.50;4963108;28;20133;-83
2022/03/04 08:05:06;;;;;;;14.57;7.72;;;;;;;0.86;82.43;101773.03;4941268;28;20061;-83
2022/03/04 08:07:34;;;;;;;13.48;7.93;;;;;;;0.90;81.98;101774.94;4955526;28;20074;-83
2022/03/04 08:10:00;;;;;;;12.13;6.90;;;;;;;0.88;81.56;101773.97;4946787;28;20524;-84
2022/03/04 08:12:27;;;;;;;15.95;8.15;;;;;;;0.87;81.68;101759.31;4940941;28;20061;-84
2022/03/04 08:14:54;;;;;;;14.70;7.50;;;;;;;0.89;82.05;101764.56;4958480;28;20072;-84
2022/03/04 08:17:20;;;;;;;16.52;7.80;;;;;;;0.81;81.99;101779.66;4963165;28;20058;-84
2022/03/04 08:19:47;;;;;;;12.57;7.47;;;;;;;0.84;82.14;101771.19;4966881;28;20552;-84
2022/03/04 08:22:14;;;;;;;15.43;8.15;;;;;;;0.92;81.57;101770.72;4947248;28;20085;-83
2022/03/04 08:24:40;;;;;;;12.63;8.10;;;;;;;0.94;81.33;101769.13;4967132;28;20185;-82
2022/03/04 08:27:09;;;;;;;14.30;8.00;;;;;;;0.95;81.26;101772.56;4944574;28;20520;-83
2022/03/04 08:29:39;;;;;;;12.68;7.53;;;;;;;1.02;80.79;101771.16;4961663;28;20054;-84
2022/03/04 08:32:06;;;;;;;14.35;8.00;;;;;;;0.95;80.69;101770.91;4967540;28;20841;-84
2022/03/04 08:34:46;;;;;;;17.23;9.30;;;;;;;0.98;80.49;101767.59;4960270;28;20054;-82
2022/03/04 08:37:18;;;;;;;16.52;10.00;;;;;;;1.11;80.08;101769.94;4969691;28;20058;-85
2022/03/04 08:39:44;;;;;;;13.35;8.23;;;;;;;1.19;79.65;101770.28;4966152;28;20054;-83
2022/03/04 08:42:11;;;;;;;15.43;9.02;;;;;;;1.22;79.53;101777.28;4946486;28;20055;-83
2022/03/04 08:44:38;;;;;;;15.20;9.20;;;;;;;1.09;79.76;101783.56;4952607;28;20059;-84
2022/03/04 08:47:05;;;;;;;18.65;9.63;;;;;;;1.11;79.57;101787.09;4949593;28;20043;-84
2022/03/04 08:49:32;;;;;;;17.58;9.23;;;;;;;1.12;79.52;101788.84;4959115;28;20051;-83
2022/03/04 08:51:59;;;;;;;16.75;9.00;;;;;;;1.19;79.77;101782.28;4959716;28;20183;-82
2022/03/04 08:54:29;;;;;;;15.02;9.50;;;;;;;1.27;79.08;101793.88;4964661;28;20047;-84
2022/03/04 08:56:55;;;;;;;16.83;10.07;;;;;;;1.26;79.30;101785.22;4958778;28;20057;-83
2022/03/04 08:59:22;;;;;;;16.70;10.55;;;;;;;1.28;78.45;101788.78;4967588;28;20421;-83
2022/03/04 09:01:49;;;;;;;19.45;10.25;;;;;;;1.29;78.52;101792.22;4967288;28;20047;-85
2022/03/04 09:04:17;;;;;;;21.67;10.90;;;;;;;1.36;78.71;101799.47;4957683;28;20350;-84
2022/03/04 09:06:45;;;;;;;16.77;9.60;;;;;;;1.43;78.35;101793.75;4945380;28;20059;-83
2022/03/04 09:09:12;;;;;;;21.98;10.73;;;;;;;1.56;77.96;101790.06;4951993;28;20634;-85
2022/03/04 09:11:39;;;;;;;28.33;12.13;;;;;;;1.68;77.10;101791.44;4964957;28;20053;-84
2022/03/04 09:14:06;;;;;;;25.55;11.52;;;;;;;1.73;77.20;101795.13;4961453;28;20149;-84
2022/03/04 09:16:33;;;;;;;18.25;10.65;;;;;;;1.82;76.72;101798.13;4964587;28;20090;-84
2022/03/04 09:19:00;;;;;;;17.38;10.65;;;;;;;1.84;76.29;101791.34;4947094;28;20055;-83
2022/03/04 09:21:27;;;;;;;20.08;10.80;;;;;;;1.90;76.34;101791.59;4943167;28;20066;-85
2022/03/04 09:23:54;;;;;;;22.17;11.60;;;;;;;1.99;75.64;101796.28;4952477;28;20066;-84
2022/03/04 09:26:21;;;;;;;17.85;9.60;;;;;;;1.88;75.28;101803.56;4945796;28;20055;-84
2022/03/04 09:28:48;;;;;;;19.55;10.20;;;;;;;1.80;76.21;101805.81;4962810;28;20133;-84
2022/03/04 09:31:15;;;;;;;20.17;10.77;;;;;;;1.89;76.31;101805.34;4947526;28;20047;-85
2022/03/04 09:33:41;;;;;;;16.17;10.52;;;;;;;2.01;75.30;101817.91;4949938;28;20046;-83
2022/03/04 09:36:11;;;;;;;16.58;9.40;;;;;;;2.07;74.75;101817.28;4967081;28;20054;-84
2022/03/04 09:38:42;;;;;;;14.07;9.13;;;;;;;1.92;75.31;101810.63;4948450;28;20073;-82
2022/03/04 09:41:10;;;;;;;15.07;9.10;;;;;;;1.90;75.35;101814.84;4966327;28;20597;-83
2022/03/04 09:43:39;;;;;;;13.02;8.95;;;;;;;1.98;75.14;101812.59;4970324;28;20057;-84
2022/03/04 09:46:08;;;;;;;13.07;8.38;;;;;;;2.12;74.51;101815.81;4951447;28;20054;-83
2022/03/04 09:48:40;;;;;;;15.32;7.97;;;;;;;2.22;74.27;101823.16;4971469;28;20046;-82
2022/03/04 09:51:09;;;;;;;15.00;8.82;;;;;;;2.32;73.46;101819.25;4970012;28;20054;-85
2022/03/04 09:53:47;;;;;;;15.48;8.43;;;;;;;2.30;72.78;101819.19;4966702;28;20052;-83
2022/03/04 09:56:19;;;;;;;13.57;7.75;;;;;;;2.30;73.10;101818.31;4957086;28;20068;-84
2022/03/04 09:58:46;;;;;;;15.55;8.45;;;;;;;2.41;72.44;101819.69;4959316;28;20050;-83
2022/03/04 10:01:14;;;;;;;17.05;9.15;;;;;;;2.44;72.78;101819.81;4957678;28;20181;-84
2022/03/04 10:03:48;;;;;;;13.65;8.45;;;;;;;2.55;73.07;101819.38;4969677;28;20062;-85
2022/03/04 10:06:21;;;;;;;14.35;8.98;;;;;;;2.58;72.46;101830.75;4952308;28;21205;-83
2022/03/04 10:08:53;;;;;;;14.93;8.90;;;;;;;2.69;72.86;101833.78;4955618;28;20136;-84
2022/03/04 10:11:31;;;;;;;18.85;8.27;;;;;;;2.79;71.79;101825.59;4955510;28;20070;-83
2022/03/04 10:14:03;;;;;;;15.38;9.40;;;;;;;2.83;71.91;101824.03;4954124;28;20069;-83
2022/03/04 10:16:39;;;;;;;14.35;8.88;;;;;;;3.01;71.48;101823.00;4959688;28;20046;-83
2022/03/04 10:19:29;;;;;;;17.40;8.88;;;;;;;3.23;70.97;101825.63;4965315;28;20486;-83
2022/03/04 10:22:02;;;;;;;11.95;7.03;;;;;;;3.59;70.87;101817.53;4955143;28;20034;-83
2022/03/04 10:24:33;;;;;;;13.10;8.60;;;;;;;3.80;68.34;101814.88;4959310;28;20627;-85
2022/03/04 10:27:08;;;;;;;14.95;7.40;;;;;;;3.94;68.49;101823.16;4962957;28;20061;-85
2022/03/04 10:29:41;;;;;;;15.15;7.80;;;;;;;3.65;67.66;101819.50;4952109;28;20054;-83
2022/03/04 10:32:16;;;;;;;11.35;6.15;;;;;;;3.47;68.40;101814.50;4967348;28;20044;-82
2022/03/04 10:34:57;;;;;;;14.00;6.72;;;;;;;3.39;68.89;101821.06;4961843;28;20038;-84
2022/03/04 10:37:54;;;;;;;10.23;6.03;;;;;;;3.58;68.56;101814.91;4982733;28;20162;-85
2022/03/04 10:40:29;;;;;;;11.13;7.38;;;;;;;3.98;66.56;101813.81;4967616;28;20085;-85
2022/03/04 10:43:05;;;;;;;10.65;6.80;;;;;;;4.60;65.41;101815.97;4968520;28;20069;-83
2022/03/04 10:45:49;;;;;;;9.95;6.60;;;;;;;5.33;64.26;101806.22;4970429;28;20062;-85
2022/03/04 10:48:20;;;;;;;6.63;5.80;;;;;;;5.83;61.05;101805.13;4966682;28;20105;-84
2022/03/04 10:50:53;;;;;;;9.07;6.53;;;;;;;5.95;59.29;101814.16;4950656;28;20046;-84
2022/03/04 10:53:32;;;;;;;11.83;6.17;;;;;;;5.92;60.48;101815.81;4952670;28;20182;-83
2022/03/04 10:56:08;;;;;;;9.18;6.15;;;;;;;6.00;60.07;101806.53;4954979;28;20306;-84
2022/03/04 10:58:38;;;;;;;9.10;5.88;;;;;;;5.83;59.09;101810.31;4975972;28;20046;-84
2022/03/04 11:01:21;;;;;;;9.63;6.43;;;;;;;5.74;59.65;101803.16;4951049;28;20129;-83
2022/03/04 11:03:58;;;;;;;10.95;6.63;;;;;;;6.15;60.15;101800.88;4969303;28;20061;-84
2022/03/04 11:06:28;;;;;;;9.55;5.60;;;;;;;7.48;55.60;101801.56;4939457;28;20059;-84
2022/03/04 11:08:56;;;;;;;7.75;6.25;;;;;;;7.92;53.82;101803.38;4965966;28;20054;-84
2022/03/04 11:14:16;;;;;;;12.90;8.50;;;;;;;7.75;53.78;101801.28;4969125;28;20560;-85
2022/03/04 11:16:43;;;;;;;7.70;5.33;;;;;;;7.52;54.71;101798.22;4959802;28;20113;-85
2022/03/04 11:19:10;;;;;;;11.43;6.32;;;;;;;7.20;55.49;101798.34;4957796;28;20042;-85
2022/03/04 11:21:37;;;;;;;10.30;6.68;;;;;;;6.89;55.40;101796.72;4967896;28;20057;-84
2022/03/04 11:24:06;;;;;;;14.15;6.45;;;;;;;6.33;57.04;101805.69;4953198;28;20054;-85
2022/03/04 11:26:34;;;;;;;8.25;5.22;;;;;;;5.93;57.91;101797.66;4973071;28;20143;-85
2022/03/04 11:29:05;;;;;;;11.10;5.97;;;;;;;5.90;58.68;101796.69;4972553;28;20041;-86
2022/03/04 11:31:33;;;;;;;8.35;5.28;;;;;;;5.86;59.24;101798.31;4974447;28;20065;-84